Kezdőlap
METAR-TAF:

METAR-TAF

Repülőterek :

Chicago, Illinois, Amerikai Egyesült Államok

földrajzi szélesség: 41-47-03N, földrajzi hosszúság: 087-45-19W, magasság: 188 m

Jelenlegi meteorológiai megfigyelések

A jelentés 38 perccel ezelõtt készült, 03:53 UTC
Északi szél 6 kt
Hőmérséklet 19°C
Páratartalom 52%
Légköri nyomás 1019 hPa
Látótávolság: 16.1 km
Kevés felhő 25000 lábon

METAR: KMDW 150353Z 01006KT 10SM FEW250 19/09 A3008 RMK AO2 SLP175 T01890094 $

Idő: 23:31 (04:31 UTC)

Előrejelzés

A jelentés 1 órával és 48 perccel ezelõtt készült, 02:43 UTC
Az előrejelzés 15-én 03 óra UTC és 16-én 06 óra UTC között érvényes
Északkeleti szél 6 kt
Látótávolság: 10 km
Kevés felhő 30000 lábon
15-én 1400 órától UTC szerint
Délkeleti szél 12 kt
Látótávolság: 10 km
Szórványos felhőzet 10000 lábon
Szakadozott felhőzet 25000 lábon

TAF: KMDW 150243Z 1503/1606 05006KT P6SM FEW300 FM151400 13012KT P6SM SCT100 BKN250

Meteorológiai megfigyelések és előrejelzések több, mint 4000 repülőtéren (METAR és TAF jelentéseket).

A térképen piros és sárga pontok jelzik az elérhető meteorológiai állomásokat.

Mozgassa az egeret a pont fölött, hogy megjelenjen az állomás neve.

Azután kattintson az időjárási megfigyelések és előrejelzések megtekintéséhez.

A térkép megváltoztatása: kattintson a fekete keresztel jelölt zöld gombra ráközelítéshez, a vonallal jelölt zöld gombra távolításhoz, vagy a zöld nyilakra a szomszédos térképek eléréséhez.


METAR-TAF: